DRGON51 KBAB-EGVA
Flight info
| Callsign | DRGON51 |
|---|---|
| Flight time | N/A |
| Altitude | 70000 |
| Route | KBAB/15 N0175F175 DCT FMG J7 GTF DCT ITREK DCT KENRU Q827 YTH DCT YYQ DCT ZS/M028F175 DCT SS DCT SF UW28 DA UT592 NONRO DCT ELDIS DCT 6220N DCT 6015N/N0175F175 DCT DUD DCT IOM DCT SWB DCT GST DCT FFA DCT EGVA/09 |
| Aircraft | U2/L-SDGRY/S |
Departure
| Time | 2026-04-24 22:51 |
|---|---|
| Airport | Beale Air Force Base (KBAB) |
Arrival
| Time | N/A |
|---|---|
| Airport | RAF Fairford (EGVA) |
| Time | Latitude | Longitude | Altitude | Speed | Heading |
|---|---|---|---|---|---|
| 2026-04-24 22:47 | 39.15071 | -121.43583 | 118 ft | 13 kts | 344° |
| 2026-04-24 22:48 | 39.15176 | -121.43629 | 118 ft | 18 kts | 341° |
| 2026-04-24 22:48 | 39.15287 | -121.43679 | 118 ft | 14 kts | 339° |
| 2026-04-24 22:48 | 39.15310 | -121.43731 | 118 ft | 7 kts | 259° |
| 2026-04-24 22:48 | 39.15286 | -121.43831 | 118 ft | 13 kts | 251° |
| 2026-04-24 22:49 | 39.15284 | -121.43835 | 118 ft | 13 kts | 251° |
| 2026-04-24 22:49 | 39.15258 | -121.43926 | 118 ft | 13 kts | 251° |
| 2026-04-24 22:49 | 39.15228 | -121.44050 | 118 ft | 15 kts | 251° |
| 2026-04-24 22:49 | 39.15189 | -121.44198 | 118 ft | 19 kts | 252° |
| 2026-04-24 22:50 | 39.15144 | -121.44308 | 118 ft | 4 kts | 202° |
| 2026-04-24 22:50 | 39.15104 | -121.44308 | 118 ft | 8 kts | 162° |
| 2026-04-24 22:50 | 39.14907 | -121.44223 | 118 ft | 78 kts | 162° |
| 2026-04-24 22:50 | 39.14077 | -121.43858 | 593 ft | 153 kts | 164° |
| 2026-04-24 22:51 | 39.13183 | -121.43478 | 2151 ft | 144 kts | 162° |
| 2026-04-24 22:51 | 39.12461 | -121.42795 | 3522 ft | 139 kts | 130° |
| 2026-04-24 22:51 | 39.12008 | -121.41750 | 4694 ft | 145 kts | 107° |
| 2026-04-24 22:51 | 39.11979 | -121.40613 | 6032 ft | 131 kts | 78° |
| 2026-04-24 22:52 | 39.12423 | -121.39659 | 7092 ft | 132 kts | 43° |
| 2026-04-24 22:52 | 39.13179 | -121.39111 | 8126 ft | 130 kts | 13° |
| 2026-04-24 22:52 | 39.14084 | -121.39131 | 8971 ft | 146 kts | 341° |
| 2026-04-24 22:52 | 39.14965 | -121.39921 | 9832 ft | 169 kts | 310° |
| 2026-04-24 22:53 | 39.15456 | -121.41316 | 10895 ft | 182 kts | 282° |
| 2026-04-24 22:53 | 39.15379 | -121.42885 | 12104 ft | 184 kts | 252° |
| 2026-04-24 22:53 | 39.14686 | -121.44211 | 13328 ft | 180 kts | 222° |
| 2026-04-24 22:53 | 39.13764 | -121.44972 | 14689 ft | 155 kts | 200° |
| 2026-04-24 22:54 | 39.12709 | -121.45171 | 15449 ft | 164 kts | 171° |
| 2026-04-24 22:54 | 39.11581 | -121.44682 | 16190 ft | 178 kts | 143° |
| 2026-04-24 22:54 | 39.10759 | -121.43572 | 17177 ft | 175 kts | 118° |
| 2026-04-24 22:54 | 39.10368 | -121.42160 | 18155 ft | 171 kts | 95° |
| 2026-04-24 22:55 | 39.10269 | -121.40633 | 18980 ft | 178 kts | 92° |
| 2026-04-24 22:55 | 39.10195 | -121.39024 | 19821 ft | 184 kts | 91° |
| 2026-04-24 22:55 | 39.10130 | -121.37462 | 20912 ft | 171 kts | 91° |
| 2026-04-24 22:55 | 39.10071 | -121.35953 | 21677 ft | 173 kts | 91° |
| 2026-04-24 22:56 | 39.10019 | -121.34403 | 22338 ft | 179 kts | 91° |
| 2026-04-24 22:56 | 39.09971 | -121.32780 | 23049 ft | 183 kts | 91° |
| 2026-04-24 22:56 | 39.09928 | -121.31123 | 23750 ft | 187 kts | 91° |
| 2026-04-24 22:56 | 39.09941 | -121.29469 | 24461 ft | 189 kts | 84° |
| 2026-04-24 22:57 | 39.10064 | -121.27782 | 25221 ft | 188 kts | 83° |
| 2026-04-24 22:57 | 39.10194 | -121.26114 | 25928 ft | 188 kts | 83° |
| 2026-04-24 22:57 | 39.10328 | -121.24412 | 26581 ft | 192 kts | 83° |
| 2026-04-24 22:57 | 39.10476 | -121.22707 | 27203 ft | 196 kts | 77° |
| 2026-04-24 22:58 | 39.10853 | -121.21029 | 27863 ft | 195 kts | 67° |
| 2026-04-24 22:58 | 39.11327 | -121.19383 | 28476 ft | 198 kts | 68° |
| 2026-04-24 22:58 | 39.11796 | -121.17717 | 29123 ft | 200 kts | 68° |
| 2026-04-24 22:58 | 39.12266 | -121.16037 | 29763 ft | 202 kts | 68° |
| 2026-04-24 22:59 | 39.12748 | -121.14317 | 30384 ft | 205 kts | 68° |
| 2026-04-24 22:59 | 39.13229 | -121.12595 | 30973 ft | 207 kts | 68° |
| 2026-04-24 22:59 | 39.14216 | -121.09066 | 32121 ft | 211 kts | 68° |
| 2026-04-24 23:00 | 39.14712 | -121.07285 | 32714 ft | 211 kts | 68° |
| 2026-04-24 23:00 | 39.15212 | -121.05491 | 33278 ft | 213 kts | 67° |
| 2026-04-24 23:00 | 39.15713 | -121.03691 | 33774 ft | 216 kts | 68° |
| 2026-04-24 23:00 | 39.16221 | -121.01867 | 34339 ft | 216 kts | 67° |
| 2026-04-24 23:01 | 39.16728 | -121.00040 | 34815 ft | 218 kts | 67° |
| 2026-04-24 23:01 | 39.17244 | -120.98182 | 35214 ft | 221 kts | 67° |
| 2026-04-24 23:01 | 39.17773 | -120.96282 | 35587 ft | 226 kts | 67° |
| 2026-04-24 23:01 | 39.18308 | -120.94362 | 35962 ft | 229 kts | 67° |
| 2026-04-24 23:02 | 39.18853 | -120.92396 | 36326 ft | 233 kts | 67° |
| 2026-04-24 23:02 | 39.19408 | -120.90392 | 36739 ft | 236 kts | 67° |
| 2026-04-24 23:02 | 39.19969 | -120.88367 | 37128 ft | 241 kts | 67° |
| 2026-04-24 23:02 | 39.20540 | -120.86311 | 37533 ft | 244 kts | 67° |
| 2026-04-24 23:03 | 39.21113 | -120.84238 | 37914 ft | 248 kts | 66° |
| 2026-04-24 23:03 | 39.21698 | -120.82118 | 38315 ft | 250 kts | 67° |
| 2026-04-24 23:03 | 39.22295 | -120.79960 | 38675 ft | 254 kts | 66° |
| 2026-04-24 23:03 | 39.22893 | -120.77796 | 39022 ft | 258 kts | 66° |
| 2026-04-24 23:04 | 39.23497 | -120.75610 | 39387 ft | 261 kts | 66° |
| 2026-04-24 23:04 | 39.24118 | -120.73360 | 39756 ft | 262 kts | 66° |
| 2026-04-24 23:04 | 39.24731 | -120.71137 | 40088 ft | 265 kts | 67° |
| 2026-04-24 23:04 | 39.25348 | -120.68902 | 40441 ft | 265 kts | 66° |
| 2026-04-24 23:05 | 39.25969 | -120.66645 | 40751 ft | 268 kts | 67° |
| 2026-04-24 23:05 | 39.26601 | -120.64338 | 41071 ft | 270 kts | 67° |
| 2026-04-24 23:05 | 39.27234 | -120.62038 | 41381 ft | 272 kts | 67° |
| 2026-04-24 23:05 | 39.27863 | -120.59747 | 41684 ft | 274 kts | 66° |
| 2026-04-24 23:06 | 39.28503 | -120.57411 | 42000 ft | 275 kts | 66° |
| 2026-04-24 23:06 | 39.29145 | -120.55064 | 42302 ft | 276 kts | 67° |
| 2026-04-24 23:06 | 39.29789 | -120.52711 | 42577 ft | 278 kts | 67° |
| 2026-04-24 23:06 | 39.30430 | -120.50371 | 42840 ft | 280 kts | 67° |
| 2026-04-24 23:07 | 39.31082 | -120.47983 | 43109 ft | 282 kts | 67° |
| 2026-04-24 23:07 | 39.31743 | -120.45556 | 43394 ft | 284 kts | 67° |
| 2026-04-24 23:07 | 39.32400 | -120.43145 | 43648 ft | 286 kts | 67° |
| 2026-04-24 23:07 | 39.33060 | -120.40723 | 43924 ft | 287 kts | 67° |
| 2026-04-24 23:08 | 39.33722 | -120.38287 | 44188 ft | 288 kts | 67° |
| 2026-04-24 23:08 | 39.34392 | -120.35822 | 44414 ft | 291 kts | 67° |
| 2026-04-24 23:08 | 39.35075 | -120.33307 | 44685 ft | 291 kts | 68° |
| 2026-04-24 23:08 | 39.35744 | -120.30838 | 44939 ft | 293 kts | 68° |
| 2026-04-24 23:09 | 39.36421 | -120.28334 | 45191 ft | 294 kts | 68° |
| 2026-04-24 23:09 | 39.37089 | -120.25854 | 45444 ft | 295 kts | 68° |
| 2026-04-24 23:09 | 39.37769 | -120.23338 | 45691 ft | 296 kts | 68° |
| 2026-04-24 23:09 | 39.38446 | -120.20829 | 45931 ft | 297 kts | 68° |
| 2026-04-24 23:10 | 39.39132 | -120.18288 | 46191 ft | 297 kts | 68° |
| 2026-04-24 23:10 | 39.39812 | -120.15762 | 46423 ft | 298 kts | 68° |
| 2026-04-24 23:10 | 39.40493 | -120.13232 | 46632 ft | 300 kts | 68° |
| 2026-04-24 23:10 | 39.41184 | -120.10666 | 46838 ft | 301 kts | 68° |
| 2026-04-24 23:11 | 39.41875 | -120.08088 | 47052 ft | 303 kts | 69° |
| 2026-04-24 23:11 | 39.42558 | -120.05544 | 47268 ft | 304 kts | 68° |
| 2026-04-24 23:11 | 39.43252 | -120.02953 | 47469 ft | 305 kts | 68° |
| 2026-04-24 23:11 | 39.43957 | -120.00320 | 47684 ft | 306 kts | 69° |
| 2026-04-24 23:12 | 39.44647 | -119.97736 | 47907 ft | 306 kts | 69° |
| 2026-04-24 23:12 | 39.45347 | -119.95117 | 48101 ft | 308 kts | 69° |
| 2026-04-24 23:12 | 39.46051 | -119.92474 | 48297 ft | 309 kts | 69° |
| 2026-04-24 23:12 | 39.46751 | -119.89848 | 48511 ft | 309 kts | 68° |
| 2026-04-24 23:13 | 39.47452 | -119.87212 | 48713 ft | 310 kts | 69° |
| 2026-04-24 23:13 | 39.48157 | -119.84563 | 48905 ft | 311 kts | 69° |
| 2026-04-24 23:13 | 39.48863 | -119.81907 | 49077 ft | 313 kts | 69° |
| 2026-04-24 23:13 | 39.49572 | -119.79234 | 49270 ft | 313 kts | 69° |
| 2026-04-24 23:14 | 39.50280 | -119.76563 | 49467 ft | 314 kts | 69° |
| 2026-04-24 23:14 | 39.50995 | -119.73862 | 49650 ft | 314 kts | 69° |
| 2026-04-24 23:14 | 39.51699 | -119.71197 | 49815 ft | 316 kts | 69° |
| 2026-04-24 23:14 | 39.52413 | -119.68501 | 49986 ft | 317 kts | 69° |
| 2026-04-24 23:15 | 39.53429 | -119.66003 | 50000 ft | 305 kts | 24° |
| 2026-04-24 23:15 | 39.54424 | -119.64408 | 45863 ft | 305 kts | 130° |
| 2026-04-24 23:15 | 39.54934 | -119.63423 | 38809 ft | 324 kts | 54° |
| 2026-04-24 23:15 | 39.55131 | -119.62852 | 31271 ft | 287 kts | 115° |
| 2026-04-24 23:16 | 39.55170 | -119.62560 | 24094 ft | 256 kts | 257° |
| 2026-04-24 23:16 | 39.55161 | -119.62402 | 17651 ft | 232 kts | 96° |
| 2026-04-24 23:16 | 39.55101 | -119.62312 | 12004 ft | 215 kts | 328° |
| 2026-04-24 23:16 | 39.55065 | -119.62247 | 6950 ft | 203 kts | 284° |
| 2026-04-24 23:17 | 39.55065 | -119.62215 | 4964 ft | 0 kts | 219° |
| 2026-04-24 23:17 | 39.55064 | -119.62215 | 4963 ft | 0 kts | 218° |
| 2026-04-24 23:17 | 39.55064 | -119.62214 | 4963 ft | 0 kts | 218° |
| 2026-04-24 23:18 | 39.55063 | -119.62214 | 4962 ft | 0 kts | 218° |
| 2026-04-24 23:18 | 39.55063 | -119.62213 | 4961 ft | 0 kts | 218° |
| 2026-04-24 23:18 | 39.55062 | -119.62213 | 4961 ft | 0 kts | 219° |
| 2026-04-24 23:19 | 39.55061 | -119.62213 | 4959 ft | 0 kts | 219° |
| 2026-04-24 23:19 | 39.55061 | -119.62212 | 4959 ft | 0 kts | 219° |
| 2026-04-24 23:20 | 39.55060 | -119.62212 | 4957 ft | 0 kts | 219° |
| 2026-04-24 23:20 | 39.55059 | -119.62212 | 4957 ft | 0 kts | 219° |
| 2026-04-24 23:20 | 39.55059 | -119.62211 | 4955 ft | 0 kts | 219° |
| 2026-04-24 23:21 | 39.55058 | -119.62211 | 4954 ft | 0 kts | 219° |
| 2026-04-24 23:21 | 39.55057 | -119.62210 | 4954 ft | 0 kts | 219° |
| 2026-04-24 23:21 | 39.55056 | -119.62210 | 4953 ft | 0 kts | 219° |
| 2026-04-24 23:22 | 39.55056 | -119.62209 | 4953 ft | 0 kts | 219° |
| 2026-04-24 23:22 | 39.55055 | -119.62209 | 4952 ft | 0 kts | 219° |
| 2026-04-24 23:22 | 39.55054 | -119.62209 | 4951 ft | 0 kts | 219° |
| 2026-04-24 23:23 | 39.55053 | -119.62208 | 4949 ft | 0 kts | 219° |
| 2026-04-24 23:24 | 39.55052 | -119.62207 | 4947 ft | 0 kts | 219° |
| 2026-04-24 23:24 | 39.55051 | -119.62207 | 4946 ft | 0 kts | 219° |
| 2026-04-24 23:24 | 39.55051 | -119.62206 | 4946 ft | 0 kts | 219° |
| 2026-04-24 23:25 | 39.55050 | -119.62206 | 4944 ft | 0 kts | 219° |
| 2026-04-24 23:25 | 39.55049 | -119.62206 | 4944 ft | 0 kts | 219° |
| 2026-04-24 23:26 | 39.55048 | -119.62205 | 4941 ft | 0 kts | 219° |
| 2026-04-24 23:26 | 39.55047 | -119.62204 | 4940 ft | 0 kts | 219° |
| 2026-04-24 23:27 | 39.55046 | -119.62204 | 4938 ft | 0 kts | 219° |
| 2026-04-24 23:27 | 39.55045 | -119.62203 | 4938 ft | 0 kts | 219° |
| 2026-04-24 23:27 | 39.55045 | -119.62202 | 4936 ft | 0 kts | 219° |
| 2026-04-24 23:28 | 39.55044 | -119.62202 | 4935 ft | 0 kts | 219° |
| 2026-04-24 23:28 | 39.55043 | -119.62202 | 4934 ft | 0 kts | 219° |
| 2026-04-24 23:28 | 39.55042 | -119.62202 | 4933 ft | 0 kts | 219° |
| 2026-04-24 23:29 | 39.55042 | -119.62201 | 4932 ft | 0 kts | 219° |
| 2026-04-24 23:29 | 39.55041 | -119.62201 | 4931 ft | 0 kts | 219° |
| 2026-04-24 23:29 | 39.55040 | -119.62200 | 4930 ft | 0 kts | 219° |
| 2026-04-24 23:30 | 39.55039 | -119.62199 | 4928 ft | 0 kts | 219° |
| 2026-04-24 23:30 | 39.55038 | -119.62199 | 4927 ft | 0 kts | 219° |
| 2026-04-24 23:31 | 39.55037 | -119.62199 | 4925 ft | 0 kts | 219° |
| 2026-04-24 23:31 | 39.55036 | -119.62198 | 4924 ft | 0 kts | 219° |
| 2026-04-24 23:32 | 39.55035 | -119.62197 | 4922 ft | 0 kts | 219° |
| 2026-04-24 23:32 | 39.55034 | -119.62197 | 4921 ft | 0 kts | 219° |
| 2026-04-24 23:33 | 39.55034 | -119.62196 | 4920 ft | 0 kts | 219° |
| 2026-04-24 23:33 | 39.55033 | -119.62196 | 4920 ft | 0 kts | 220° |
| 2026-04-24 23:33 | 39.55032 | -119.62196 | 4918 ft | 0 kts | 220° |
| 2026-04-24 23:34 | 39.55031 | -119.62196 | 4917 ft | 0 kts | 220° |
| 2026-04-24 23:34 | 39.55031 | -119.62195 | 4916 ft | 0 kts | 220° |
| 2026-04-24 23:34 | 39.55030 | -119.62195 | 4916 ft | 0 kts | 220° |
| 2026-04-24 23:35 | 39.55029 | -119.62195 | 4914 ft | 0 kts | 221° |
| 2026-04-24 23:35 | 39.55029 | -119.62194 | 4913 ft | 0 kts | 221° |
| 2026-04-24 23:36 | 39.55028 | -119.62194 | 4913 ft | 0 kts | 222° |
| 2026-04-24 23:36 | 39.55027 | -119.62194 | 4912 ft | 0 kts | 222° |
| 2026-04-24 23:37 | 39.55026 | -119.62193 | 4909 ft | 0 kts | 223° |
| 2026-04-24 23:37 | 39.55025 | -119.62193 | 4908 ft | 0 kts | 223° |
| 2026-04-24 23:38 | 39.55024 | -119.62193 | 4906 ft | 0 kts | 224° |
| 2026-04-24 23:38 | 39.55023 | -119.62193 | 4905 ft | 0 kts | 225° |
| 2026-04-24 23:38 | 39.55022 | -119.62193 | 4904 ft | 0 kts | 225° |
| 2026-04-24 23:39 | 39.55022 | -119.62192 | 4904 ft | 0 kts | 226° |
| 2026-04-24 23:39 | 39.55021 | -119.62192 | 4902 ft | 0 kts | 227° |
| 2026-04-24 23:39 | 39.55020 | -119.62192 | 4902 ft | 0 kts | 228° |
| 2026-04-24 23:40 | 39.55020 | -119.62191 | 4901 ft | 0 kts | 228° |
| 2026-04-24 23:40 | 39.55019 | -119.62191 | 4900 ft | 0 kts | 229° |
| 2026-04-24 23:40 | 39.55018 | -119.62191 | 4899 ft | 0 kts | 230° |
| 2026-04-24 23:41 | 39.55017 | -119.62190 | 4898 ft | 0 kts | 231° |
| 2026-04-24 23:41 | 39.55016 | -119.62190 | 4897 ft | 0 kts | 232° |
| 2026-04-24 23:42 | 39.55015 | -119.62190 | 4895 ft | 0 kts | 232° |
| 2026-04-24 23:42 | 39.55014 | -119.62189 | 4894 ft | 0 kts | 233° |
| 2026-04-24 23:43 | 39.55013 | -119.62189 | 4893 ft | 0 kts | 233° |
| 2026-04-24 23:43 | 39.55012 | -119.62189 | 4892 ft | 0 kts | 233° |
| 2026-04-24 23:44 | 39.55011 | -119.62189 | 4891 ft | 0 kts | 233° |
| 2026-04-24 23:44 | 39.55010 | -119.62189 | 4890 ft | 0 kts | 233° |
| 2026-04-24 23:45 | 39.55010 | -119.62190 | 4890 ft | 0 kts | 233° |
| 2026-04-24 23:45 | 39.55009 | -119.62190 | 4889 ft | 0 kts | 232° |
| 2026-04-24 23:46 | 39.55009 | -119.62191 | 4889 ft | 0 kts | 232° |
| 2026-04-24 23:46 | 39.55008 | -119.62191 | 4889 ft | 0 kts | 232° |
| 2026-04-24 23:47 | 39.55007 | -119.62192 | 4888 ft | 0 kts | 232° |
| 2026-04-24 23:48 | 39.55006 | -119.62192 | 4887 ft | 0 kts | 232° |
| 2026-04-24 23:48 | 39.55006 | -119.62193 | 4887 ft | 0 kts | 231° |
| 2026-04-24 23:48 | 39.55005 | -119.62193 | 4887 ft | 0 kts | 231° |
| 2026-04-24 23:49 | 39.55004 | -119.62193 | 4886 ft | 0 kts | 230° |
| 2026-04-24 23:50 | 39.55003 | -119.62193 | 4885 ft | 0 kts | 229° |
| 2026-04-24 23:51 | 39.55002 | -119.62193 | 4885 ft | 0 kts | 228° |
| 2026-04-24 23:51 | 39.55001 | -119.62194 | 4884 ft | 0 kts | 227° |
| 2026-04-24 23:52 | 39.55000 | -119.62194 | 4883 ft | 0 kts | 226° |
| 2026-04-24 23:53 | 39.55000 | -119.62195 | 4883 ft | 0 kts | 225° |
| 2026-04-24 23:53 | 39.54999 | -119.62195 | 4883 ft | 0 kts | 224° |
| 2026-04-24 23:54 | 39.54998 | -119.62195 | 4882 ft | 0 kts | 225° |
| 2026-04-24 23:54 | 39.54998 | -119.62196 | 4882 ft | 0 kts | 225° |
| 2026-04-24 23:55 | 39.54997 | -119.62196 | 4881 ft | 0 kts | 225° |
| 2026-04-24 23:56 | 39.54996 | -119.62196 | 4881 ft | 0 kts | 223° |
| 2026-04-24 23:57 | 39.54996 | -119.62197 | 4880 ft | 0 kts | 224° |
| 2026-04-24 23:57 | 39.54995 | -119.62197 | 4880 ft | 0 kts | 223° |
| 2026-04-24 23:58 | 39.54995 | -119.62198 | 4880 ft | 0 kts | 223° |
| 2026-04-24 23:58 | 39.54995 | -119.62199 | 4880 ft | 0 kts | 223° |
| 2026-04-24 23:59 | 39.54994 | -119.62199 | 4879 ft | 0 kts | 221° |
| 2026-04-25 00:00 | 39.54993 | -119.62199 | 4879 ft | 0 kts | 220° |
| 2026-04-25 00:00 | 39.54993 | -119.62200 | 4879 ft | 0 kts | 221° |